Stowe, Pennsylvania
Current Conditions -  °F | °C
As of 4:54 AM on Wednesday 22 Oct 2014 (Local Time) from KPTW Reporting Station
Overcast Overcast  
Wind Chill: 54°   Ceiling: 1400
Heat Index: 54°   Visibility: 10mi
Dew Point: 49°   Wind: 8mph
Humidity: 83%   Direction: 20°NNE
Pressure: 29.89"   Gusts: NA
Location:  40.2616°N, 75.6182°W
Report Text: KPTW 220854Z AUTO 02007KT 10SM OVC014 12/09 A2989 RMK AO2 SLP117 T01220094 55003
Loading
Personal Weather Stations






























Interactive Weather Map
Tropical Storm Tracking
New forecast layout! Learn more

10-Day Weather Forecast

Advertisements
Track Severe Weather on mobile